Time;durP1;ratioP1;P1;durP2;ratioP2;P2;SDS_P1;SDS_P2;PMS_P1;PMS_P2;Temp;Humidity;BMP_temperature;BMP_pressure;BME280_temperature;BME280_humidity;BME280_pressure;Samples;Min_cycle;Max_cycle;Signal;HPM_P1;HPM_P2
2021/07/12 00:01:08;;;;;;;6.90;3.70;;;13.80;99.90;;;;;;5081627;28;20286;-85
2021/07/12 00:03:34;;;;;;;5.80;4.40;;;13.80;99.90;;;;;;5082359;28;20181;-85
2021/07/12 00:05:59;;;;;;;5.47;4.20;;;13.80;99.90;;;;;;5083266;28;20196;-85
2021/07/12 00:08:25;;;;;;;4.93;4.43;;;13.80;99.90;;;;;;5082764;28;20657;-85
2021/07/12 00:10:51;;;;;;;5.60;4.47;;;13.80;99.90;;;;;;5082916;28;20200;-85
2021/07/12 00:13:17;;;;;;;6.93;4.60;;;13.80;99.90;;;;;;5082998;28;20165;-85
2021/07/12 00:15:43;;;;;;;5.93;4.27;;;13.70;99.90;;;;;;5082079;28;20644;-85
2021/07/12 00:18:09;;;;;;;7.13;3.90;;;13.70;99.90;;;;;;5082772;28;20670;-85
2021/07/12 00:20:34;;;;;;;5.87;4.60;;;13.70;99.90;;;;;;5083514;28;20759;-85
2021/07/12 00:23:00;;;;;;;6.23;4.73;;;13.60;99.90;;;;;;5082454;28;20184;-85
2021/07/12 00:25:27;;;;;;;5.23;4.30;;;13.60;99.90;;;;;;5082606;28;20172;-85
2021/07/12 00:27:53;;;;;;;5.83;4.37;;;13.60;99.90;;;;;;5083969;28;20247;-85
2021/07/12 00:30:21;;;;;;;5.10;4.10;;;13.60;99.90;;;;;;5083603;28;20606;-85
2021/07/12 00:32:48;;;;;;;6.47;4.10;;;13.60;99.90;;;;;;5082520;28;20223;-85
2021/07/12 00:35:15;;;;;;;5.33;4.37;;;13.60;99.90;;;;;;5081182;28;20181;-85
2021/07/12 00:37:41;;;;;;;4.73;4.07;;;13.70;99.90;;;;;;5081649;28;20201;-85
2021/07/12 00:40:12;;;;;;;5.00;4.23;;;13.70;99.90;;;;;;5082052;28;20193;-85
2021/07/12 00:42:38;;;;;;;5.97;4.70;;;13.70;99.90;;;;;;5082640;28;20229;-85
2021/07/12 00:45:08;;;;;;;7.03;4.67;;;13.60;99.90;;;;;;5081067;28;20256;-85
2021/07/12 00:47:34;;;;;;;5.43;4.63;;;13.70;99.90;;;;;;5080498;28;20181;-85
2021/07/12 00:50:00;;;;;;;4.87;4.30;;;13.60;99.90;;;;;;5080113;28;20205;-84
2021/07/12 00:52:26;;;;;;;6.30;4.40;;;13.60;99.90;;;;;;5080299;28;20196;-85
2021/07/12 00:54:51;;;;;;;6.10;4.47;;;13.60;99.90;;;;;;5080419;28;20275;-85
2021/07/12 00:57:17;;;;;;;4.30;3.90;;;13.60;99.90;;;;;;5080380;28;20228;-85
2021/07/12 00:59:43;;;;;;;5.00;4.13;;;13.60;99.90;;;;;;5079971;28;20197;-85
2021/07/12 01:02:09;;;;;;;5.67;5.00;;;13.60;99.90;;;;;;5080011;28;20177;-85
2021/07/12 01:04:36;;;;;;;7.57;4.67;;;13.60;99.90;;;;;;5081663;28;20180;-85
2021/07/12 01:07:02;;;;;;;5.87;4.67;;;13.50;99.90;;;;;;5079056;28;20185;-85
2021/07/12 01:09:27;;;;;;;7.73;4.83;;;13.50;99.90;;;;;;5079217;28;20206;-85
2021/07/12 01:12:04;;;;;;;6.03;4.60;;;13.50;99.90;;;;;;5078953;28;20192;-85
2021/07/12 01:14:46;;;;;;;6.57;4.80;;;13.50;99.90;;;;;;5080491;28;20160;-85
2021/07/12 01:17:40;;;;;;;5.03;4.30;;;13.50;99.90;;;;;;5078607;28;20578;-85
2021/07/12 01:20:34;;;;;;;4.63;4.00;;;13.50;99.90;;;;;;5082440;28;21062;-85
2021/07/12 01:23:18;;;;;;;5.00;4.50;;;13.40;99.90;;;;;;5080534;28;20162;-85
2021/07/12 01:26:21;;;;;;;6.17;4.57;;;13.40;99.90;;;;;;5080547;28;20165;-85
2021/07/12 01:29:18;;;;;;;5.53;4.47;;;13.40;99.90;;;;;;5080383;28;20188;-85
2021/07/12 01:32:13;;;;;;;7.20;5.63;;;13.40;99.90;;;;;;5081483;28;20169;-85
2021/07/12 01:34:50;;;;;;;5.53;4.23;;;13.30;99.90;;;;;;5081353;28;20161;-85
2021/07/12 01:37:21;;;;;;;10.57;5.20;;;13.20;99.90;;;;;;5080407;28;20211;-85
2021/07/12 01:40:19;;;;;;;7.03;5.40;;;13.20;99.90;;;;;;5081454;28;20193;-85
2021/07/12 01:43:03;;;;;;;6.40;4.57;;;13.20;99.90;;;;;;5079836;28;20363;-85
2021/07/12 01:45:41;;;;;;;5.63;4.97;;;13.20;99.90;;;;;;5080715;28;20165;-85
2021/07/12 01:48:16;;;;;;;6.43;4.93;;;13.20;99.90;;;;;;5079775;28;20176;-85
2021/07/12 01:50:56;;;;;;;7.47;5.07;;;13.20;99.90;;;;;;5079477;28;20287;-85
2021/07/12 01:53:48;;;;;;;6.10;5.00;;;13.20;99.90;;;;;;5079321;28;20175;-85
2021/07/12 01:56:31;;;;;;;5.93;5.17;;;13.20;99.90;;;;;;5078676;28;20203;-85
2021/07/12 01:59:05;;;;;;;6.53;4.90;;;13.20;99.90;;;;;;5079077;28;20241;-85
2021/07/12 02:01:34;;;;;;;9.07;4.87;;;13.20;99.90;;;;;;5075887;28;20496;-86
2021/07/12 02:04:02;;;;;;;5.13;4.63;;;13.20;99.90;;;;;;5087324;28;20177;-86
2021/07/12 02:06:33;;;;;;;5.10;4.60;;;13.20;99.90;;;;;;5080374;28;20180;-86
2021/07/12 02:09:00;;;;;;;5.30;4.80;;;13.10;99.90;;;;;;5080078;28;20177;-85
2021/07/12 02:11:26;;;;;;;5.10;4.60;;;13.10;99.90;;;;;;5079585;28;20200;-85
2021/07/12 02:13:52;;;;;;;7.50;4.90;;;13.10;99.90;;;;;;5079586;28;20173;-86
2021/07/12 02:16:20;;;;;;;7.67;4.40;;;13.10;99.90;;;;;;5078991;28;20268;-85
2021/07/12 02:18:46;;;;;;;5.20;4.60;;;13.10;99.90;;;;;;5078540;28;20246;-85
2021/07/12 02:21:15;;;;;;;4.97;3.90;;;13.00;99.90;;;;;;5078862;28;20193;-85
2021/07/12 02:23:41;;;;;;;5.63;4.60;;;13.10;99.90;;;;;;5082061;28;20156;-85
2021/07/12 02:26:11;;;;;;;4.93;4.43;;;13.00;99.90;;;;;;5081979;28;20180;-86
2021/07/12 02:28:42;;;;;;;5.57;4.37;;;13.10;99.90;;;;;;5081138;28;20646;-86
2021/07/12 02:31:09;;;;;;;5.80;4.80;;;13.00;99.90;;;;;;5079943;28;20208;-86
2021/07/12 02:33:35;;;;;;;5.60;4.57;;;13.00;99.90;;;;;;5080311;28;20631;-85
2021/07/12 02:36:02;;;;;;;4.97;4.17;;;13.00;99.90;;;;;;5079758;28;20540;-85
2021/07/12 02:38:28;;;;;;;6.00;4.50;;;13.00;99.90;;;;;;5080754;28;20658;-85
2021/07/12 02:40:55;;;;;;;5.00;3.90;;;13.00;99.90;;;;;;5079208;28;20654;-86
2021/07/12 02:43:22;;;;;;;4.10;3.70;;;13.00;99.90;;;;;;5081492;28;20177;-86
2021/07/12 02:45:49;;;;;;;5.20;4.07;;;12.90;99.90;;;;;;5079378;28;20323;-86
2021/07/12 02:48:14;;;;;;;4.17;3.77;;;12.90;99.90;;;;;;5079684;28;20275;-86
2021/07/12 02:50:41;;;;;;;4.43;3.67;;;12.90;99.90;;;;;;5080474;28;20221;-86
2021/07/12 02:53:21;;;;;;;3.53;3.00;;;12.80;99.90;;;;;;5080738;28;20173;-86
2021/07/12 02:55:47;;;;;;;4.00;3.53;;;12.80;99.90;;;;;;5080846;28;20157;-86
2021/07/12 02:58:13;;;;;;;7.77;3.60;;;12.80;99.90;;;;;;5079551;28;20567;-86
2021/07/12 03:00:39;;;;;;;4.33;3.83;;;12.80;99.90;;;;;;5079138;28;20208;-86
2021/07/12 03:03:05;;;;;;;4.10;3.40;;;12.70;99.90;;;;;;5079599;28;20179;-86
2021/07/12 03:05:31;;;;;;;3.97;3.37;;;12.70;99.90;;;;;;5079805;28;20200;-86
2021/07/12 03:08:15;;;;;;;4.77;3.17;;;12.70;99.90;;;;;;5081372;28;20177;-86
2021/07/12 03:10:49;;;;;;;3.70;3.40;;;12.60;99.90;;;;;;5080219;28;20526;-86
2021/07/12 03:13:20;;;;;;;5.07;3.57;;;12.60;99.90;;;;;;5079832;28;20229;-86
2021/07/12 03:15:50;;;;;;;5.20;3.63;;;12.60;99.90;;;;;;5068208;28;20187;-86
2021/07/12 03:18:18;;;;;;;6.37;3.60;;;12.60;99.90;;;;;;5057833;28;20295;-85
2021/07/12 03:20:47;;;;;;;7.60;3.70;;;12.50;99.90;;;;;;5057689;28;20196;-86
2021/07/12 03:23:14;;;;;;;4.77;3.37;;;12.50;99.90;;;;;;5057511;28;20241;-86
2021/07/12 03:25:47;;;;;;;4.43;3.80;;;12.50;99.90;;;;;;5060034;28;20170;-86
2021/07/12 03:28:14;;;;;;;5.23;3.80;;;12.40;99.90;;;;;;5057887;28;20259;-86
2021/07/12 03:30:43;;;;;;;4.67;3.43;;;12.40;99.90;;;;;;5057933;28;20205;-86
2021/07/12 03:33:09;;;;;;;5.37;3.70;;;12.40;99.90;;;;;;5059289;28;20174;-86
2021/07/12 03:35:44;;;;;;;5.03;3.23;;;12.30;99.90;;;;;;5057582;28;20279;-86
2021/07/12 03:38:19;;;;;;;4.80;3.47;;;12.30;99.90;;;;;;5058139;28;20305;-86
2021/07/12 03:40:45;;;;;;;4.20;3.80;;;12.40;99.90;;;;;;5058082;28;20245;-86
2021/07/12 03:43:13;;;;;;;5.80;3.47;;;12.40;99.90;;;;;;5058250;28;20185;-86
2021/07/12 03:45:39;;;;;;;4.63;3.90;;;12.50;99.90;;;;;;5058597;28;20176;-86
2021/07/12 03:48:07;;;;;;;3.90;3.40;;;12.40;99.90;;;;;;5058466;28;20174;-86
2021/07/12 03:50:33;;;;;;;5.97;3.70;;;12.40;99.90;;;;;;5058567;28;20212;-86
2021/07/12 03:53:01;;;;;;;5.37;4.03;;;12.40;99.90;;;;;;5057761;28;20547;-86
2021/07/12 03:55:29;;;;;;;4.30;3.90;;;12.40;99.90;;;;;;5057485;28;20173;-86
2021/07/12 03:57:55;;;;;;;5.93;4.00;;;12.40;99.90;;;;;;5057962;28;20205;-86
2021/07/12 04:00:23;;;;;;;4.83;3.67;;;12.40;99.90;;;;;;5057736;28;20194;-86
2021/07/12 04:02:50;;;;;;;3.90;3.50;;;12.40;99.90;;;;;;5057497;28;20177;-86
2021/07/12 04:05:17;;;;;;;4.30;3.80;;;12.40;99.90;;;;;;5057218;28;20554;-86
2021/07/12 04:07:43;;;;;;;4.20;3.80;;;12.30;99.90;;;;;;5056905;28;20654;-86
2021/07/12 04:10:11;;;;;;;8.47;3.50;;;12.30;99.90;;;;;;5055980;28;20202;-85
2021/07/12 04:12:38;;;;;;;7.43;3.50;;;12.30;99.90;;;;;;5056337;28;20724;-86
2021/07/12 04:15:05;;;;;;;4.53;3.30;;;12.30;99.90;;;;;;5056157;28;20201;-86
2021/07/12 04:17:30;;;;;;;5.33;4.00;;;12.30;99.90;;;;;;5061372;28;20243;-85
2021/07/12 04:19:57;;;;;;;4.17;3.50;;;12.30;99.90;;;;;;5062182;28;20205;-86
2021/07/12 04:22:23;;;;;;;4.63;4.03;;;12.20;99.90;;;;;;5059245;28;20694;-86
2021/07/12 04:24:49;;;;;;;4.80;3.73;;;12.20;99.90;;;;;;5066028;28;20186;-86
2021/07/12 04:27:15;;;;;;;4.83;3.63;;;12.20;99.90;;;;;;5068433;28;20185;-86
2021/07/12 04:29:41;;;;;;;4.33;3.50;;;12.20;99.90;;;;;;5062299;28;20738;-87
2021/07/12 04:32:07;;;;;;;5.00;3.77;;;12.30;99.90;;;;;;5061576;28;20221;-86
2021/07/12 04:34:32;;;;;;;4.23;3.83;;;12.30;99.90;;;;;;5062025;28;20182;-86
2021/07/12 04:36:58;;;;;;;3.77;3.47;;;12.30;99.90;;;;;;5062719;28;20244;-86
2021/07/12 04:39:24;;;;;;;3.73;3.30;;;12.30;99.90;;;;;;5062012;28;20201;-86
2021/07/12 04:41:50;;;;;;;4.10;3.40;;;12.40;99.90;;;;;;5063291;28;20174;-86
2021/07/12 04:44:15;;;;;;;3.77;3.37;;;12.40;99.90;;;;;;5062127;28;20188;-86
2021/07/12 04:46:41;;;;;;;3.70;3.40;;;12.40;99.90;;;;;;5063701;28;20636;-86
2021/07/12 04:49:07;;;;;;;3.67;3.10;;;12.50;99.90;;;;;;5061862;28;20259;-86
2021/07/12 04:51:32;;;;;;;6.57;3.23;;;12.50;99.90;;;;;;5063979;28;20203;-86
2021/07/12 04:53:59;;;;;;;3.73;3.20;;;12.60;99.90;;;;;;5063532;28;20184;-86
2021/07/12 04:56:25;;;;;;;4.37;3.53;;;12.80;99.90;;;;;;5061219;28;20216;-86
2021/07/12 04:58:52;;;;;;;4.47;3.80;;;12.80;99.90;;;;;;5059538;28;20547;-86
2021/07/12 05:01:18;;;;;;;4.27;3.70;;;12.90;99.90;;;;;;5059026;28;20201;-86
2021/07/12 05:03:44;;;;;;;5.07;3.63;;;13.00;99.90;;;;;;5059760;28;20563;-86
2021/07/12 05:06:10;;;;;;;3.43;2.87;;;13.00;99.90;;;;;;5061138;28;20200;-86
2021/07/12 05:08:36;;;;;;;2.50;2.30;;;13.10;99.90;;;;;;5060774;28;20185;-86
2021/07/12 05:11:02;;;;;;;3.70;2.63;;;13.20;99.90;;;;;;5060280;28;20284;-86
2021/07/12 05:13:29;;;;;;;3.10;2.53;;;13.20;99.90;;;;;;5061836;28;20231;-86
2021/07/12 05:15:56;;;;;;;5.97;3.30;;;13.20;99.90;;;;;;5063279;28;20181;-86
2021/07/12 05:18:21;;;;;;;6.20;3.20;;;13.20;99.90;;;;;;5062693;28;20205;-86
2021/07/12 05:20:47;;;;;;;7.63;3.67;;;13.30;99.90;;;;;;5062686;28;20208;-86
2021/07/12 05:23:13;;;;;;;12.07;4.67;;;13.30;99.90;;;;;;5064206;28;20627;-86
2021/07/12 05:25:39;;;;;;;8.43;4.30;;;13.30;99.90;;;;;;5060678;28;20543;-86
2021/07/12 05:28:05;;;;;;;3.30;2.50;;;13.40;99.90;;;;;;5061401;28;20193;-86
2021/07/12 05:30:31;;;;;;;2.97;2.20;;;13.50;99.90;;;;;;5060798;28;20284;-86
2021/07/12 05:32:57;;;;;;;5.93;2.20;;;13.60;99.90;;;;;;5060412;28;20585;-87
2021/07/12 05:35:23;;;;;;;2.30;2.00;;;13.70;99.90;;;;;;5060316;28;20250;-87
2021/07/12 05:37:49;;;;;;;3.23;2.20;;;13.70;99.90;;;;;;5060486;28;20231;-86
2021/07/12 05:40:15;;;;;;;3.03;1.70;;;13.80;99.90;;;;;;5059553;28;20193;-87
2021/07/12 05:42:41;;;;;;;2.40;2.17;;;13.80;99.90;;;;;;5060744;28;20177;-87
2021/07/12 05:45:07;;;;;;;2.53;1.97;;;13.90;99.90;;;;;;5060260;28;20177;-87
2021/07/12 05:47:33;;;;;;;3.90;2.10;;;14.00;99.90;;;;;;5066822;28;20544;-86
2021/07/12 05:49:59;;;;;;;4.30;2.30;;;14.10;99.90;;;;;;5080717;28;20201;-85
2021/07/12 05:52:25;;;;;;;2.50;1.93;;;14.10;99.90;;;;;;5080457;28;20230;-87
2021/07/12 05:54:50;;;;;;;1.80;1.60;;;14.20;99.90;;;;;;5076520;28;20249;-87
2021/07/12 05:57:16;;;;;;;3.57;1.87;;;14.30;99.90;;;;;;5072793;28;20670;-86
2021/07/12 05:59:41;;;;;;;3.33;1.93;;;14.30;99.90;;;;;;5071543;28;20222;-87
2021/07/12 06:02:08;;;;;;;3.10;1.80;;;14.40;99.90;;;;;;5079531;28;20272;-87
2021/07/12 06:04:33;;;;;;;2.07;1.60;;;14.40;99.90;;;;;;5080298;28;20179;-87
2021/07/12 06:06:59;;;;;;;1.60;1.50;;;14.50;99.90;;;;;;5079872;28;20200;-87
2021/07/12 06:09:25;;;;;;;1.60;1.50;;;14.60;99.90;;;;;;5079597;28;20209;-87
2021/07/12 06:11:50;;;;;;;3.57;1.70;;;14.60;99.90;;;;;;5081241;28;20177;-87
2021/07/12 06:14:16;;;;;;;2.13;1.50;;;14.80;99.90;;;;;;5083132;28;20627;-86
2021/07/12 06:16:42;;;;;;;3.67;1.70;;;14.80;99.90;;;;;;5089632;28;20232;-86
2021/07/12 06:19:08;;;;;;;2.77;1.60;;;14.90;99.90;;;;;;5075461;28;20177;-86
2021/07/12 06:21:33;;;;;;;4.17;1.87;;;15.00;99.90;;;;;;5083219;28;20181;-86
2021/07/12 06:23:59;;;;;;;2.70;1.70;;;15.10;99.90;;;;;;5083261;28;20189;-86
2021/07/12 06:26:25;;;;;;;2.97;1.60;;;15.20;99.90;;;;;;5079225;28;20181;-86
2021/07/12 06:28:51;;;;;;;2.10;1.90;;;15.20;99.90;;;;;;5079060;28;20200;-86
2021/07/12 06:31:16;;;;;;;2.00;1.60;;;15.30;99.90;;;;;;5078872;28;20200;-87
2021/07/12 06:33:42;;;;;;;1.87;1.60;;;15.40;99.90;;;;;;5078272;28;20185;-86
2021/07/12 06:36:08;;;;;;;1.90;1.70;;;15.40;99.90;;;;;;5079516;28;20177;-87
2021/07/12 06:38:34;;;;;;;2.20;1.30;;;15.50;99.90;;;;;;5077823;28;20183;-86
2021/07/12 06:41:00;;;;;;;4.90;1.80;;;15.60;99.90;;;;;;5077340;28;20220;-86
2021/07/12 06:43:26;;;;;;;2.80;1.70;;;15.70;99.90;;;;;;5077409;28;20211;-86
2021/07/12 06:45:52;;;;;;;2.13;1.57;;;15.80;99.90;;;;;;5077579;28;20177;-86
2021/07/12 06:48:18;;;;;;;2.10;1.47;;;15.90;99.90;;;;;;5078239;28;20185;-86
2021/07/12 06:50:43;;;;;;;1.57;1.47;;;16.00;99.90;;;;;;5077962;28;20212;-87
2021/07/12 06:53:09;;;;;;;3.40;1.80;;;16.10;99.90;;;;;;5080113;28;20177;-86
2021/07/12 06:55:35;;;;;;;5.53;1.83;;;16.20;99.90;;;;;;5077881;28;20188;-86
2021/07/12 06:58:04;;;;;;;1.70;1.60;;;16.30;99.90;;;;;;5077282;28;20202;-86
2021/07/12 07:00:32;;;;;;;2.23;1.70;;;16.40;99.90;;;;;;5077348;28;20208;-86
2021/07/12 07:02:58;;;;;;;3.80;1.70;;;16.50;99.90;;;;;;5076941;28;20640;-86
2021/07/12 07:05:26;;;;;;;3.83;1.97;;;16.60;99.90;;;;;;5079004;28;20177;-86
2021/07/12 07:07:52;;;;;;;2.00;1.77;;;16.70;99.90;;;;;;5079841;28;20206;-86
2021/07/12 07:10:18;;;;;;;3.33;2.10;;;16.90;99.90;;;;;;5080344;28;20201;-86
2021/07/12 07:12:44;;;;;;;2.83;1.37;;;17.10;99.90;;;;;;5080789;28;20177;-86
2021/07/12 07:15:10;;;;;;;3.67;1.90;;;17.40;99.90;;;;;;5081888;28;20182;-86
2021/07/12 07:17:36;;;;;;;1.83;1.50;;;17.70;99.90;;;;;;5081912;28;20255;-86
2021/07/12 07:20:03;;;;;;;2.73;1.67;;;17.80;99.90;;;;;;5082792;28;20197;-86
2021/07/12 07:22:28;;;;;;;3.63;1.70;;;18.00;99.90;;;;;;5081964;28;20266;-86
2021/07/12 07:24:54;;;;;;;2.27;1.60;;;18.10;99.90;;;;;;5082484;28;20169;-86
2021/07/12 07:27:20;;;;;;;4.80;2.03;;;18.20;99.90;;;;;;5083120;28;20236;-86
2021/07/12 07:29:46;;;;;;;2.37;1.77;;;18.30;99.90;;;;;;5083407;28;20203;-86
2021/07/12 07:32:12;;;;;;;2.43;1.80;;;18.40;99.90;;;;;;5083650;28;20178;-86
2021/07/12 07:34:38;;;;;;;2.03;1.70;;;18.50;99.90;;;;;;5085332;28;20186;-86
2021/07/12 07:37:04;;;;;;;6.07;2.10;;;18.40;99.90;;;;;;5083296;28;20204;-86
2021/07/12 07:39:29;;;;;;;2.00;1.80;;;18.50;99.90;;;;;;5085368;28;20202;-86
2021/07/12 07:41:56;;;;;;;2.67;2.00;;;18.50;99.90;;;;;;5084699;28;20197;-86
2021/07/12 07:44:21;;;;;;;3.10;1.83;;;18.60;99.90;;;;;;5084791;28;20182;-86
2021/07/12 07:46:47;;;;;;;3.40;1.83;;;18.60;99.90;;;;;;5085573;28;20715;-86
2021/07/12 07:49:13;;;;;;;3.80;1.90;;;18.70;99.90;;;;;;5088645;28;20624;-86
2021/07/12 07:51:38;;;;;;;3.37;1.97;;;18.70;99.90;;;;;;5079721;28;20183;-85
2021/07/12 07:54:05;;;;;;;2.10;1.77;;;18.90;99.90;;;;;;5081900;28;20174;-85
2021/07/12 07:56:31;;;;;;;3.33;2.00;;;19.00;99.90;;;;;;5078504;28;20211;-86
2021/07/12 07:58:56;;;;;;;2.33;1.90;;;19.10;99.90;;;;;;5080328;28;20548;-86
2021/07/12 08:01:22;;;;;;;4.60;1.93;;;19.20;99.90;;;;;;5083505;28;20270;-86
2021/07/12 08:03:48;;;;;;;2.03;1.83;;;19.30;99.90;;;;;;5085590;28;20629;-86
2021/07/12 08:06:17;;;;;;;2.10;1.73;;;19.40;99.90;;;;;;5083973;28;20261;-86
2021/07/12 08:08:44;;;;;;;1.90;1.70;;;19.50;99.90;;;;;;5083022;28;20176;-86
2021/07/12 08:11:11;;;;;;;3.57;1.90;;;19.60;99.90;;;;;;5079540;28;20210;-86
2021/07/12 08:13:36;;;;;;;1.67;1.57;;;19.80;99.90;;;;;;5081291;28;20255;-86
2021/07/12 08:16:03;;;;;;;1.80;1.60;;;19.90;99.90;;;;;;5083730;28;20638;-86
2021/07/12 08:18:29;;;;;;;1.77;1.60;;;20.00;99.90;;;;;;5088846;28;20337;-85
2021/07/12 08:20:55;;;;;;;1.80;1.53;;;20.20;99.90;;;;;;5080413;28;20211;-86
2021/07/12 08:23:20;;;;;;;2.20;1.93;;;20.30;99.90;;;;;;5079814;28;20176;-85
2021/07/12 08:25:46;;;;;;;1.60;1.50;;;20.40;99.90;;;;;;5078351;28;20192;-86
2021/07/12 08:28:12;;;;;;;1.67;1.50;;;20.60;99.90;;;;;;5091246;28;20196;-86
2021/07/12 08:30:37;;;;;;;1.80;1.60;;;20.60;99.90;;;;;;5084333;28;20247;-85
2021/07/12 08:33:04;;;;;;;2.33;1.77;;;20.70;99.90;;;;;;5084264;28;20184;-86
2021/07/12 08:35:29;;;;;;;3.10;1.93;;;20.80;99.90;;;;;;5083397;28;20208;-86
2021/07/12 08:37:55;;;;;;;2.60;1.50;;;20.90;99.90;;;;;;5085005;28;20226;-86
2021/07/12 08:40:23;;;;;;;1.90;1.70;;;21.10;99.90;;;;;;5083934;28;20221;-86
2021/07/12 08:42:50;;;;;;;1.60;1.40;;;21.10;99.90;;;;;;5084788;28;20175;-86
2021/07/12 08:45:16;;;;;;;1.60;1.50;;;21.30;99.90;;;;;;5083661;28;20207;-86
2021/07/12 08:47:42;;;;;;;1.80;1.70;;;21.30;99.90;;;;;;5083332;28;20177;-86
2021/07/12 08:50:08;;;;;;;1.47;1.37;;;21.40;99.90;;;;;;5082788;28;20197;-86
2021/07/12 08:52:34;;;;;;;2.03;1.50;;;21.50;99.90;;;;;;5082929;28;20180;-86
2021/07/12 08:55:00;;;;;;;1.87;1.67;;;21.70;99.90;;;;;;5083509;28;20192;-86
2021/07/12 08:57:25;;;;;;;4.50;1.70;;;21.90;99.90;;;;;;5083762;28;20208;-86
2021/07/12 08:59:55;;;;;;;1.90;1.57;;;22.10;99.90;;;;;;5081818;28;20254;-87
2021/07/12 09:02:21;;;;;;;1.93;1.60;;;22.20;99.90;;;;;;5085697;28;20168;-83
2021/07/12 09:04:49;;;;;;;1.33;1.10;;;22.40;99.90;;;;;;5082957;28;20184;-84
2021/07/12 09:07:29;;;;;;;2.63;1.50;;;22.50;99.90;;;;;;5084464;28;20177;-84
2021/07/12 09:10:09;;;;;;;1.83;1.50;;;22.70;99.90;;;;;;5083248;28;20208;-83
2021/07/12 09:12:41;;;;;;;1.50;1.40;;;22.90;99.90;;;;;;5083169;28;20539;-84
2021/07/12 09:15:09;;;;;;;2.07;1.73;;;23.10;99.90;;;;;;5083084;28;20521;-84
2021/07/12 09:17:39;;;;;;;2.03;1.83;;;23.20;99.90;;;;;;5083442;28;20212;-84
2021/07/12 09:20:08;;;;;;;2.47;1.77;;;23.30;99.90;;;;;;5085049;28;20602;-84
2021/07/12 09:22:40;;;;;;;2.43;1.60;;;23.50;99.90;;;;;;5079928;28;20264;-84
2021/07/12 09:25:12;;;;;;;3.60;1.60;;;23.60;99.90;;;;;;5080383;28;20177;-84
2021/07/12 09:27:40;;;;;;;1.43;1.30;;;23.60;99.90;;;;;;5081970;28;20268;-84
2021/07/12 09:30:09;;;;;;;1.60;1.40;;;23.70;99.90;;;;;;5081687;28;20196;-84
2021/07/12 09:32:36;;;;;;;3.93;1.30;;;23.80;99.90;;;;;;5081468;28;20173;-84
2021/07/12 09:35:13;;;;;;;5.70;1.27;;;23.90;99.90;;;;;;5079233;28;20212;-84
2021/07/12 09:37:42;;;;;;;2.07;1.50;;;24.10;99.90;;;;;;5081168;28;20207;-84
2021/07/12 09:40:18;;;;;;;2.80;1.27;;;24.40;99.90;;;;;;5081706;28;20266;-84
2021/07/12 09:42:46;;;;;;;2.90;1.40;;;24.70;99.90;;;;;;5081448;28;20168;-84
2021/07/12 09:45:14;;;;;;;2.03;1.30;;;24.90;99.90;;;;;;5081354;28;20169;-84
2021/07/12 09:47:44;;;;;;;1.50;1.40;;;25.00;99.90;;;;;;5080809;28;20200;-84
2021/07/12 09:50:19;;;;;;;1.40;1.30;;;25.00;99.90;;;;;;5079710;28;20201;-84
2021/07/12 09:52:50;;;;;;;1.20;1.10;;;25.20;99.90;;;;;;5080905;28;20196;-84
2021/07/12 09:55:22;;;;;;;2.63;1.20;;;25.30;99.90;;;;;;5081320;28;20177;-84
2021/07/12 09:58:06;;;;;;;1.63;1.30;;;25.40;99.90;;;;;;5079644;28;20223;-84
2021/07/12 10:00:31;;;;;;;2.03;1.10;;;25.40;99.90;;;;;;5080671;28;20611;-84
2021/07/12 10:02:58;;;;;;;1.50;1.30;;;25.40;99.90;;;;;;5078572;28;20223;-84
2021/07/12 10:05:24;;;;;;;1.70;1.30;;;25.50;99.90;;;;;;5080231;28;20190;-84
2021/07/12 10:07:49;;;;;;;1.27;1.13;;;25.50;99.90;;;;;;5080329;28;20185;-84
2021/07/12 10:10:15;;;;;;;1.33;1.20;;;25.60;99.90;;;;;;5078287;28;20198;-84
2021/07/12 10:12:43;;;;;;;1.60;1.50;;;25.70;99.90;;;;;;5081808;28;20182;-84
2021/07/12 10:15:10;;;;;;;3.77;1.33;;;25.80;99.90;;;;;;5076473;28;20234;-84
2021/07/12 10:17:39;;;;;;;2.70;1.23;;;26.00;99.90;;;;;;5075619;28;20212;-84
2021/07/12 10:20:05;;;;;;;1.63;1.50;;;26.10;99.90;;;;;;5075539;28;20198;-84
2021/07/12 10:22:36;;;;;;;1.97;1.27;;;26.30;99.90;;;;;;5074974;28;20228;-84
2021/07/12 10:25:14;;;;;;;1.40;1.20;;;26.40;99.90;;;;;;5079582;28;20532;-84
2021/07/12 10:27:50;;;;;;;2.47;1.10;;;26.60;99.90;;;;;;5083705;28;20190;-84
2021/07/12 10:30:30;;;;;;;1.67;1.10;;;26.50;99.90;;;;;;5081186;28;20202;-85
2021/07/12 10:33:16;;;;;;;1.30;1.20;;;26.40;99.90;;;;;;5080012;28;20233;-84
2021/07/12 10:35:53;;;;;;;2.00;1.13;;;26.50;99.90;;;;;;5080372;28;20262;-84
2021/07/12 10:38:28;;;;;;;1.77;1.20;;;26.60;99.90;;;;;;5084009;28;20205;-84
2021/07/12 10:41:00;;;;;;;1.30;1.10;;;26.60;99.90;;;;;;5083508;28;20202;-84
2021/07/12 10:43:41;;;;;;;1.73;1.20;;;26.70;99.90;;;;;;5085126;28;20171;-84
2021/07/12 10:46:07;;;;;;;2.07;1.17;;;27.00;99.90;;;;;;5087948;28;20172;-84
2021/07/12 10:48:38;;;;;;;2.00;1.30;;;27.10;99.90;;;;;;5081053;28;20219;-83
2021/07/12 10:51:18;;;;;;;1.30;1.20;;;27.10;99.90;;;;;;5081534;28;20207;-83
2021/07/12 10:53:54;;;;;;;1.67;1.23;;;27.10;99.90;;;;;;5079589;28;20183;-83
2021/07/12 10:56:21;;;;;;;2.43;1.20;;;27.20;99.90;;;;;;5080715;28;20192;-83
2021/07/12 10:58:47;;;;;;;1.83;1.00;;;27.40;99.90;;;;;;5077853;28;20232;-82
2021/07/12 11:01:18;;;;;;;2.07;1.03;;;27.70;99.90;;;;;;5077768;28;20193;-82
2021/07/12 11:03:49;;;;;;;1.40;1.30;;;27.90;99.90;;;;;;5078884;28;20173;-82
2021/07/12 11:06:21;;;;;;;2.00;1.30;;;28.20;99.90;;;;;;5080013;28;20173;-83
2021/07/12 11:08:56;;;;;;;2.03;1.07;;;28.30;99.90;;;;;;5080656;28;20168;-82
2021/07/12 11:11:22;;;;;;;1.47;1.37;;;28.30;99.90;;;;;;5076707;28;20193;-81
2021/07/12 11:13:52;;;;;;;2.37;1.13;;;28.40;99.90;;;;;;5076485;28;20180;-81
2021/07/12 11:16:23;;;;;;;1.30;1.10;;;28.50;99.90;;;;;;5081755;28;20177;-82
2021/07/12 11:18:50;;;;;;;1.50;1.10;;;28.60;99.90;;;;;;5082521;28;20208;-82
2021/07/12 11:21:28;;;;;;;2.10;1.27;;;28.60;99.90;;;;;;5081026;28;20204;-81
2021/07/12 11:24:23;;;;;;;1.57;1.20;;;28.80;99.90;;;;;;5081572;28;20169;-82
2021/07/12 11:26:55;;;;;;;2.10;1.30;;;29.00;99.90;;;;;;5084230;28;20179;-82
2021/07/12 11:29:28;;;;;;;2.40;1.30;;;28.80;99.90;;;;;;5082348;28;20258;-83
2021/07/12 11:32:01;;;;;;;1.37;1.27;;;29.00;99.90;;;;;;5082451;28;20646;-81
2021/07/12 11:34:32;;;;;;;1.70;1.20;;;29.30;99.90;;;;;;5086432;28;20632;-83
2021/07/12 11:37:15;;;;;;;1.60;1.50;;;29.60;99.90;;;;;;5086242;28;20200;-82
2021/07/12 11:39:41;;;;;;;2.03;1.17;;;30.10;99.90;;;;;;5085769;28;20674;-83
2021/07/12 11:42:18;;;;;;;1.97;1.40;;;30.30;99.90;;;;;;5086052;28;20170;-82
2021/07/12 11:44:46;;;;;;;2.60;1.30;;;30.60;99.90;;;;;;5088131;28;20206;-83
2021/07/12 11:47:27;;;;;;;1.73;1.63;;;30.90;99.90;;;;;;5084549;28;20185;-82
2021/07/12 11:49:57;;;;;;;1.77;1.40;;;31.00;99.90;;;;;;5085707;28;20339;-82
2021/07/12 11:52:23;;;;;;;1.67;1.57;;;31.30;99.90;;;;;;5086694;28;20237;-82
2021/07/12 11:54:59;;;;;;;1.43;1.10;;;31.40;99.90;;;;;;5086240;28;20245;-81
2021/07/12 11:57:25;;;;;;;2.50;1.30;;;31.60;99.90;;;;;;5087399;28;20195;-83
2021/07/12 11:59:51;;;;;;;1.90;1.27;;;31.70;99.90;;;;;;5090390;28;20202;-84
2021/07/12 12:02:17;;;;;;;6.57;2.80;;;31.90;99.90;;;;;;5093756;28;20178;-83
2021/07/12 12:04:57;;;;;;;14.43;8.33;;;32.20;99.90;;;;;;5084899;28;20182;-83
2021/07/12 12:07:32;;;;;;;2.33;1.40;;;32.50;99.90;;;;;;5086797;28;20170;-83
2021/07/12 12:09:58;;;;;;;9.80;4.90;;;;;;;;;;5083688;28;20202;-84
2021/07/12 12:12:32;;;;;;;5.00;3.17;;;32.60;98.20;;;;;;5084315;28;20175;-83
2021/07/12 12:15:00;;;;;;;3.40;1.70;;;32.80;99.90;;;;;;5085224;28;20174;-83
2021/07/12 12:17:26;;;;;;;6.13;3.63;;;32.80;94.60;;;;;;5082943;28;20202;-83
2021/07/12 12:20:13;;;;;;;8.37;3.03;;;32.60;99.30;;;;;;5083323;28;20225;-84
2021/07/12 12:23:22;;;;;;;5.37;3.23;;;32.70;98.70;;;;;;5080007;28;20661;-83
2021/07/12 12:26:00;;;;;;;1.70;1.40;;;32.70;98.00;;;;;;5069773;28;20218;-83
2021/07/12 12:28:36;;;;;;;2.17;1.40;;;33.10;95.70;;;;;;5084342;28;20245;-84
2021/07/12 12:31:07;;;;;;;2.87;1.90;;;33.40;99.90;;;;;;5082586;28;20201;-84
2021/07/12 12:33:43;;;;;;;27.87;12.33;;;33.40;97.10;;;;;;5081933;28;20192;-84
2021/07/12 12:36:18;;;;;;;5.53;3.10;;;33.60;97.70;;;;;;5081650;28;20191;-83
2021/07/12 12:39:00;;;;;;;29.67;14.93;;;33.30;96.10;;;;;;5082088;28;20184;-84
2021/07/12 12:41:29;;;;;;;3.97;2.27;;;33.40;98.40;;;;;;5081747;28;20200;-87
2021/07/12 12:44:15;;;;;;;4.27;1.60;;;33.10;93.70;;;;;;5080856;28;20632;-83
2021/07/12 12:46:49;;;;;;;1.53;1.43;;;32.80;95.80;;;;;;5080020;28;20261;-83
2021/07/12 12:49:18;;;;;;;1.50;1.40;;;32.80;94.60;;;;;;5080969;28;20177;-84
2021/07/12 12:51:54;;;;;;;2.13;1.20;;;32.80;97.20;;;;;;5079390;28;20237;-83
2021/07/12 12:54:21;;;;;;;2.57;1.40;;;32.90;99.90;;;;;;5079806;28;20216;-84
2021/07/12 12:56:53;;;;;;;1.87;1.53;;;33.10;96.50;;;;;;5080677;28;20188;-83
2021/07/12 12:59:32;;;;;;;1.43;1.33;;;33.20;96.20;;;;;;5080901;28;20181;-83